createdAt,value
2023-05-12T00:01:15.210Z,15.20
2023-05-12T00:03:43.543Z,15.20
2023-05-12T00:06:12.328Z,15.20
2023-05-12T00:08:40.510Z,15.20
2023-05-12T00:11:08.705Z,15.20
2023-05-12T00:13:36.910Z,15.20
2023-05-12T00:16:05.974Z,15.20
2023-05-12T00:18:35.484Z,15.20
2023-05-12T00:21:03.643Z,15.20
2023-05-12T00:23:32.286Z,15.20
2023-05-12T00:26:00.459Z,15.20
2023-05-12T00:28:29.522Z,15.20
2023-05-12T00:30:58.336Z,15.20
2023-05-12T00:33:26.490Z,15.20
2023-05-12T00:35:56.271Z,15.20
2023-05-12T00:38:24.481Z,15.20
2023-05-12T00:40:52.617Z,15.20
2023-05-12T00:43:20.744Z,15.20
2023-05-12T00:45:49.263Z,15.20
2023-05-12T00:48:17.686Z,15.20
2023-05-12T00:50:45.932Z,15.10
2023-05-12T00:53:15.720Z,15.10
2023-05-12T00:55:44.671Z,15.20
2023-05-12T00:58:13.039Z,15.20
2023-05-12T01:00:41.158Z,15.20
2023-05-12T01:03:09.656Z,15.20
2023-05-12T01:05:43.579Z,15.20
2023-05-12T01:08:12.744Z,15.10
2023-05-12T01:10:46.119Z,15.00
2023-05-12T01:13:14.302Z,15.00
2023-05-12T01:15:47.666Z,15.00
2023-05-12T01:18:19.647Z,14.90
2023-05-12T01:20:48.780Z,14.90
2023-05-12T01:23:20.498Z,14.80
2023-05-12T01:25:51.084Z,14.80
2023-05-12T01:28:21.742Z,14.80
2023-05-12T01:30:50.550Z,14.80
2023-05-12T01:33:18.759Z,14.70
2023-05-12T01:35:47.334Z,14.80
2023-05-12T01:38:15.471Z,14.80
2023-05-12T01:40:43.585Z,14.70
2023-05-12T01:43:11.758Z,14.80
2023-05-12T01:45:41.246Z,14.70
2023-05-12T01:48:09.382Z,14.70
2023-05-12T01:50:37.533Z,14.70
2023-05-12T01:53:05.672Z,14.70
2023-05-12T01:55:34.663Z,14.80
2023-05-12T01:58:02.779Z,14.80
2023-05-12T02:00:30.983Z,14.80
2023-05-12T02:03:00.566Z,14.80
2023-05-12T02:05:28.781Z,14.90
2023-05-12T02:07:56.953Z,14.90
2023-05-12T02:10:25.146Z,14.80
2023-05-12T02:12:53.292Z,14.90
2023-05-12T02:15:21.638Z,14.90
2023-05-12T02:17:53.779Z,15.00
2023-05-12T02:20:23.331Z,15.00
2023-05-12T02:22:51.494Z,15.00
2023-05-12T02:25:19.681Z,15.00
2023-05-12T02:27:47.893Z,15.10
2023-05-12T02:30:16.171Z,15.10
2023-05-12T02:32:44.339Z,15.10
2023-05-12T02:35:12.501Z,15.10
2023-05-12T02:37:41.994Z,15.10
2023-05-12T02:40:10.951Z,15.10
2023-05-12T02:42:39.212Z,15.10
2023-05-12T02:45:08.566Z,15.10
2023-05-12T02:47:36.832Z,15.10
2023-05-12T02:50:05.493Z,15.10
2023-05-12T02:52:33.680Z,15.20
2023-05-12T02:55:03.208Z,15.20
2023-05-12T02:57:33.808Z,15.20
2023-05-12T03:00:04.085Z,15.20
2023-05-12T03:02:32.346Z,15.20
2023-05-12T03:05:00.591Z,15.20
2023-05-12T03:07:28.834Z,15.20
2023-05-12T03:09:57.234Z,15.20
2023-05-12T03:12:28.711Z,15.20
2023-05-12T03:14:57.936Z,15.20
2023-05-12T03:17:26.336Z,15.20
2023-05-12T03:19:54.531Z,15.20
2023-05-12T03:22:22.719Z,15.20
2023-05-12T03:24:51.867Z,15.20
2023-05-12T03:27:20.122Z,15.20
2023-05-12T03:29:49.658Z,15.20
2023-05-12T03:32:17.779Z,15.20
2023-05-12T03:34:45.967Z,15.20
2023-05-12T03:37:14.137Z,15.20
2023-05-12T03:39:42.471Z,15.10
2023-05-12T03:42:10.688Z,15.10
2023-05-12T03:44:38.871Z,15.10
2023-05-12T03:47:09.047Z,15.10
2023-05-12T03:49:37.199Z,15.10
2023-05-12T03:52:05.815Z,15.10
2023-05-12T03:54:35.133Z,15.10
2023-05-12T03:57:04.329Z,15.20
2023-05-12T03:59:32.707Z,15.20
2023-05-12T04:02:01.681Z,15.20
2023-05-12T04:04:31.414Z,15.20
2023-05-12T04:07:00.950Z,15.20
2023-05-12T04:09:29.094Z,15.20
2023-05-12T04:11:57.201Z,15.30
2023-05-12T04:14:35.159Z,15.20
2023-05-12T04:17:07.708Z,15.20
2023-05-12T04:19:37.198Z,15.20
2023-05-12T04:22:05.646Z,15.20
2023-05-12T04:24:33.760Z,15.20
2023-05-12T04:27:01.858Z,15.20
2023-05-12T04:29:29.984Z,15.10
2023-05-12T04:31:59.978Z,15.20
2023-05-12T04:34:28.160Z,15.20
2023-05-12T04:36:57.697Z,15.20
2023-05-12T04:39:25.797Z,15.10
2023-05-12T04:41:53.936Z,15.10
2023-05-12T04:44:22.380Z,15.10
2023-05-12T04:46:53.351Z,15.10
2023-05-12T04:49:21.490Z,15.00
2023-05-12T04:51:49.633Z,15.00
2023-05-12T04:54:19.121Z,15.00
2023-05-12T04:56:47.276Z,15.00
2023-05-12T04:59:16.364Z,14.90
2023-05-12T05:01:44.751Z,14.90
2023-05-12T05:04:12.953Z,14.90
2023-05-12T05:06:41.074Z,14.90
2023-05-12T05:09:09.659Z,14.90
2023-05-12T05:11:39.122Z,14.90
2023-05-12T05:14:07.208Z,14.90
2023-05-12T05:16:35.618Z,14.90
2023-05-12T05:19:06.505Z,14.90
2023-05-12T05:21:37.620Z,14.90
2023-05-12T05:24:08.501Z,14.90
2023-05-12T05:26:38.666Z,14.90
2023-05-12T05:29:07.348Z,14.90
2023-05-12T05:31:35.542Z,14.90
2023-05-12T05:34:03.754Z,14.80
2023-05-12T05:36:31.955Z,14.90
2023-05-12T05:39:00.109Z,14.90
2023-05-12T05:41:28.201Z,15.00
2023-05-12T05:43:57.635Z,15.00
2023-05-12T05:46:25.883Z,15.00
2023-05-12T05:48:54.082Z,15.00
2023-05-12T05:51:22.205Z,15.00
2023-05-12T05:53:50.347Z,15.00
2023-05-12T05:56:18.442Z,15.00
2023-05-12T05:58:46.540Z,15.00
2023-05-12T06:01:16.049Z,15.00
2023-05-12T06:03:44.264Z,15.00
2023-05-12T06:06:12.455Z,15.00
2023-05-12T06:08:40.568Z,15.00
2023-05-12T06:11:08.745Z,15.00
2023-05-12T06:13:37.249Z,15.00
2023-05-12T06:16:05.726Z,15.00
2023-05-12T06:18:37.861Z,15.00
2023-05-12T06:21:06.835Z,15.00
2023-05-12T06:23:34.946Z,15.00
2023-05-12T06:26:03.132Z,15.00
2023-05-12T06:28:31.332Z,15.00
2023-05-12T06:31:00.474Z,15.10
2023-05-12T06:33:28.872Z,15.10
2023-05-12T06:35:58.576Z,15.10
2023-05-12T06:38:26.699Z,15.20
2023-05-12T06:40:54.847Z,15.20
2023-05-12T06:43:23.563Z,15.20
2023-05-12T06:45:51.721Z,15.30
2023-05-12T06:48:19.932Z,15.40
2023-05-12T06:50:48.093Z,15.40
2023-05-12T06:53:17.601Z,15.40
2023-05-12T06:55:46.948Z,15.40
2023-05-12T06:58:15.207Z,15.40
2023-05-12T07:00:43.362Z,15.50
2023-05-12T07:03:11.604Z,15.50
2023-05-12T07:05:39.972Z,15.60
2023-05-12T07:08:08.161Z,15.60
2023-05-12T07:10:38.010Z,15.60
2023-05-12T07:13:06.215Z,15.70
2023-05-12T07:15:34.614Z,15.80
2023-05-12T07:18:02.832Z,15.80
2023-05-12T07:20:30.926Z,15.80
2023-05-12T07:22:59.096Z,15.90
2023-05-12T07:25:28.172Z,15.90
2023-05-12T07:27:58.258Z,15.90
2023-05-12T07:30:26.600Z,16.00
2023-05-12T07:32:54.855Z,16.00
2023-05-12T07:35:23.224Z,16.00
2023-05-12T07:37:51.362Z,16.00
2023-05-12T07:40:19.752Z,16.10
2023-05-12T07:42:47.996Z,16.10
2023-05-12T07:45:22.904Z,16.10
2023-05-12T07:47:51.578Z,16.10
2023-05-12T07:50:20.123Z,16.20
2023-05-12T07:52:49.809Z,16.20
2023-05-12T07:55:19.049Z,16.30
2023-05-12T07:57:47.442Z,16.20
2023-05-12T08:00:17.591Z,16.30
2023-05-12T08:02:47.022Z,16.30
2023-05-12T08:05:15.514Z,16.30
2023-05-12T08:07:44.453Z,16.40
2023-05-12T08:10:13.987Z,16.50
2023-05-12T08:12:42.978Z,16.50
2023-05-12T08:15:11.412Z,16.50
2023-05-12T08:17:41.254Z,16.60
2023-05-12T08:20:10.743Z,16.60
2023-05-12T08:22:39.923Z,16.70
2023-05-12T08:25:12.230Z,16.70
2023-05-12T08:27:40.921Z,16.80
2023-05-12T08:30:10.065Z,16.90
2023-05-12T08:32:38.666Z,17.00
2023-05-12T08:35:08.987Z,17.10
2023-05-12T08:37:37.174Z,17.10
2023-05-12T08:40:14.740Z,17.20
2023-05-12T08:42:45.530Z,17.20
2023-05-12T08:45:13.736Z,17.20
2023-05-12T08:47:42.739Z,17.30
2023-05-12T08:50:15.254Z,17.40
2023-05-12T08:52:43.581Z,17.50
2023-05-12T08:55:13.251Z,17.60
2023-05-12T08:57:45.387Z,17.70
2023-05-12T09:00:14.562Z,17.80
2023-05-12T09:02:53.241Z,17.90
2023-05-12T09:05:24.302Z,17.90
2023-05-12T09:07:54.357Z,17.90
2023-05-12T09:10:34.598Z,17.90
2023-05-12T09:13:05.580Z,17.90
2023-05-12T09:15:40.113Z,18.00
2023-05-12T09:18:08.623Z,18.00
2023-05-12T09:20:38.410Z,18.00
2023-05-12T09:23:16.899Z,18.00
2023-05-12T09:25:46.774Z,18.10
2023-05-12T09:28:15.707Z,18.20
2023-05-12T09:30:43.895Z,18.20
2023-05-12T09:33:13.617Z,18.30
2023-05-12T09:35:44.649Z,18.40
2023-05-12T09:38:14.396Z,18.50
2023-05-12T09:40:43.164Z,18.60
2023-05-12T09:43:15.177Z,18.70
2023-05-12T09:45:44.089Z,18.80
2023-05-12T09:48:14.272Z,18.90
2023-05-12T09:50:48.765Z,19.00
2023-05-12T09:53:18.956Z,19.00
2023-05-12T09:55:48.690Z,19.10
2023-05-12T09:58:18.238Z,19.10
2023-05-12T10:03:21.774Z,19.30
2023-05-12T10:05:54.591Z,19.40
2023-05-12T10:08:27.707Z,19.40
2023-05-12T10:10:58.261Z,19.50
2023-05-12T10:13:29.538Z,19.60
2023-05-12T10:15:58.649Z,19.60
2023-05-12T10:18:27.229Z,19.60
2023-05-12T10:20:58.901Z,19.60
2023-05-12T10:23:28.528Z,19.60
2023-05-12T10:25:58.642Z,19.60
2023-05-12T10:28:26.857Z,19.60
2023-05-12T10:30:56.088Z,19.60
2023-05-12T10:33:24.327Z,19.70
2023-05-12T10:35:53.881Z,19.60
2023-05-12T10:38:24.258Z,19.70
2023-05-12T10:40:54.183Z,19.70
2023-05-12T10:43:26.641Z,19.70
2023-05-12T10:46:08.351Z,19.70
2023-05-12T10:48:38.629Z,19.70
2023-05-12T10:51:10.628Z,19.80
2023-05-12T10:53:49.862Z,19.90
2023-05-12T10:56:24.561Z,20.00
2023-05-12T10:59:17.383Z,20.00
2023-05-12T11:02:03.055Z,20.00
2023-05-12T11:04:41.584Z,20.10
2023-05-12T11:07:12.086Z,20.20
2023-05-12T11:09:53.603Z,20.30
2023-05-12T11:12:26.636Z,20.40
2023-05-12T11:14:55.094Z,20.50
2023-05-12T11:17:23.311Z,20.50
2023-05-12T11:19:52.543Z,20.50
2023-05-12T11:22:22.434Z,20.50
2023-05-12T11:24:53.444Z,20.40
2023-05-12T11:27:23.835Z,20.40
2023-05-12T11:29:59.400Z,20.30
2023-05-12T11:32:28.252Z,20.30
2023-05-12T11:34:56.461Z,20.30
2023-05-12T11:37:24.687Z,20.20
2023-05-12T11:39:54.156Z,20.30
2023-05-12T11:42:24.404Z,20.30
2023-05-12T11:44:55.408Z,20.30
2023-05-12T11:47:23.834Z,20.30
2023-05-12T11:49:53.036Z,20.30
2023-05-12T11:52:23.215Z,20.40
2023-05-12T11:54:52.100Z,20.50
2023-05-12T11:57:28.704Z,20.60
2023-05-12T12:00:00.948Z,20.60
2023-05-12T12:02:29.379Z,20.70
2023-05-12T12:04:58.032Z,20.80
2023-05-12T12:07:32.809Z,20.90
2023-05-12T12:10:11.640Z,21.00
2023-05-12T12:12:41.355Z,21.30
2023-05-12T12:15:10.397Z,21.30
2023-05-12T12:17:39.674Z,21.40
2023-05-12T12:20:09.943Z,21.50
2023-05-12T12:22:38.106Z,21.70
2023-05-12T12:25:07.320Z,21.80
2023-05-12T12:27:35.446Z,22.00
2023-05-12T12:30:05.352Z,22.10
2023-05-12T12:32:33.501Z,22.20
2023-05-12T12:35:04.219Z,22.40
2023-05-12T12:37:32.395Z,22.40
2023-05-12T12:40:07.811Z,22.40
2023-05-12T12:42:37.103Z,22.30
2023-05-12T12:45:09.855Z,22.30
2023-05-12T12:47:39.021Z,22.20
2023-05-12T12:50:09.942Z,22.10
2023-05-12T12:52:39.054Z,22.10
2023-05-12T12:55:08.616Z,22.00
2023-05-12T12:57:36.780Z,22.10
2023-05-12T13:00:08.356Z,22.20
2023-05-12T13:02:37.148Z,22.30
2023-05-12T13:05:07.194Z,22.40
2023-05-12T13:07:35.478Z,22.50
2023-05-12T13:10:03.932Z,22.60
2023-05-12T13:12:32.485Z,22.70
2023-05-12T13:15:02.124Z,22.70
2023-05-12T13:17:31.955Z,22.70
2023-05-12T13:20:00.429Z,22.80
2023-05-12T13:22:29.141Z,22.90
2023-05-12T13:24:57.423Z,23.00
2023-05-12T13:27:25.838Z,23.10
2023-05-12T13:29:54.016Z,23.00
2023-05-12T13:32:22.530Z,22.80
2023-05-12T13:34:52.169Z,22.90
2023-05-12T13:37:20.313Z,22.90
2023-05-12T13:39:48.565Z,22.90
2023-05-12T13:42:17.105Z,22.90
2023-05-12T13:44:45.870Z,22.90
2023-05-12T13:47:14.701Z,22.90
2023-05-12T13:49:43.407Z,22.90
2023-05-12T13:52:12.977Z,22.80
2023-05-12T13:54:41.386Z,22.80
2023-05-12T13:57:09.984Z,22.70
2023-05-12T13:59:38.201Z,22.70
2023-05-12T14:02:09.529Z,22.60
2023-05-12T14:04:37.971Z,22.60
2023-05-12T14:07:08.532Z,22.60
2023-05-12T14:09:38.538Z,22.60
2023-05-12T14:12:08.050Z,22.60
2023-05-12T14:14:37.072Z,22.50
2023-05-12T14:17:05.841Z,22.50
2023-05-12T14:19:36.185Z,22.50
2023-05-12T14:22:12.505Z,22.40
2023-05-12T14:24:48.378Z,22.40
2023-05-12T14:27:16.764Z,22.30
2023-05-12T14:29:45.302Z,22.40
2023-05-12T14:32:13.544Z,22.40
2023-05-12T14:34:41.699Z,22.30
2023-05-12T14:37:09.949Z,22.30
2023-05-12T14:39:38.119Z,22.30
2023-05-12T14:42:08.137Z,22.20
2023-05-12T14:44:36.612Z,22.20
2023-05-12T14:47:05.925Z,22.10
2023-05-12T14:49:35.762Z,22.10
2023-05-12T14:52:04.008Z,22.10
2023-05-12T14:54:34.110Z,22.10
2023-05-12T14:57:02.291Z,22.10
2023-05-12T14:59:31.898Z,22.20
2023-05-12T15:02:00.284Z,22.10
2023-05-12T15:04:28.581Z,22.10
2023-05-12T15:06:56.762Z,22.10
2023-05-12T15:09:25.116Z,22.20
2023-05-12T15:11:53.634Z,22.10
2023-05-12T15:14:22.134Z,22.10
2023-05-12T15:16:52.298Z,22.10
2023-05-12T15:19:21.853Z,22.10
2023-05-12T15:21:50.059Z,22.10
2023-05-12T15:24:18.438Z,22.00
2023-05-12T15:26:46.910Z,22.00
2023-05-12T15:29:16.724Z,22.00
2023-05-12T15:31:45.136Z,22.00
2023-05-12T15:34:14.993Z,22.00
2023-05-12T15:36:45.545Z,22.00
2023-05-12T15:39:13.779Z,21.80
2023-05-12T15:41:41.905Z,21.70
2023-05-12T15:44:10.198Z,21.80
2023-05-12T15:46:38.500Z,21.70
2023-05-12T15:49:07.020Z,21.70
2023-05-12T15:51:36.997Z,21.70
2023-05-12T15:54:07.142Z,21.60
2023-05-12T15:56:37.551Z,21.60
2023-05-12T15:59:06.783Z,21.60
2023-05-12T16:01:35.154Z,21.60
2023-05-12T16:04:04.139Z,21.60
2023-05-12T16:06:32.357Z,21.60
2023-05-12T16:09:02.464Z,21.70
2023-05-12T16:11:30.731Z,21.70
2023-05-12T16:13:59.638Z,21.70
2023-05-12T16:16:27.993Z,21.70
2023-05-12T16:18:56.237Z,21.70
2023-05-12T16:21:24.520Z,21.60
2023-05-12T16:23:52.853Z,21.70
2023-05-12T16:26:22.443Z,21.70
2023-05-12T16:28:50.633Z,21.80
2023-05-12T16:31:19.745Z,21.70
2023-05-12T16:33:47.942Z,21.70
2023-05-12T16:36:17.671Z,21.80
2023-05-12T16:38:45.970Z,21.80
2023-05-12T16:41:14.126Z,21.80
2023-05-12T16:43:43.671Z,21.80
2023-05-12T16:46:11.912Z,21.80
2023-05-12T16:48:40.254Z,21.80
2023-05-12T16:51:10.135Z,21.80
2023-05-12T16:53:38.477Z,21.80
2023-05-12T16:56:07.191Z,21.70
2023-05-12T16:58:35.624Z,21.70
2023-05-12T17:01:05.506Z,21.70
2023-05-12T17:03:33.791Z,21.60
2023-05-12T17:06:02.305Z,21.60
2023-05-12T17:08:30.545Z,21.50
2023-05-12T17:10:58.935Z,21.50
2023-05-12T17:13:27.083Z,21.40
2023-05-12T17:15:55.317Z,21.20
2023-05-12T17:18:25.854Z,21.10
2023-05-12T17:20:54.181Z,21.00
2023-05-12T17:23:22.581Z,20.90
2023-05-12T17:25:50.802Z,20.80
2023-05-12T17:28:19.304Z,20.80
2023-05-12T17:30:47.957Z,20.70
2023-05-12T17:33:16.414Z,20.60
2023-05-12T17:35:56.480Z,20.60
2023-05-12T17:38:32.395Z,20.50
2023-05-12T17:41:00.526Z,20.30
2023-05-12T17:43:29.593Z,20.20
2023-05-12T17:45:57.939Z,20.20
2023-05-12T17:48:26.440Z,20.10
2023-05-12T17:50:56.366Z,20.00
2023-05-12T17:53:24.715Z,20.00
2023-05-12T17:55:52.959Z,19.90
2023-05-12T17:58:21.749Z,19.90
2023-05-12T18:00:49.971Z,19.80
2023-05-12T18:03:23.252Z,19.90
2023-05-12T18:05:53.267Z,19.80
2023-05-12T18:08:22.882Z,19.80
2023-05-12T18:10:51.142Z,19.80
2023-05-12T18:13:19.536Z,19.80
2023-05-12T18:15:49.512Z,19.70
2023-05-12T18:18:17.720Z,19.70
2023-05-12T18:20:46.077Z,19.70
2023-05-12T18:23:14.326Z,19.60
2023-05-12T18:25:43.874Z,19.60
2023-05-12T18:28:12.290Z,19.60
2023-05-12T18:30:41.564Z,19.60
2023-05-12T18:33:10.009Z,19.50
2023-05-12T18:35:38.314Z,19.50
2023-05-12T18:38:07.077Z,19.40
2023-05-12T18:40:35.497Z,19.40
2023-05-12T18:43:04.958Z,19.30
2023-05-12T18:45:33.155Z,19.30
2023-05-12T18:48:01.400Z,19.20
2023-05-12T18:50:29.646Z,19.20
2023-05-12T18:52:58.315Z,19.20
2023-05-12T18:55:26.549Z,19.10
2023-05-12T18:57:54.680Z,19.00
2023-05-12T19:00:27.586Z,19.00
2023-05-12T19:02:55.834Z,19.00
2023-05-12T19:05:24.400Z,19.00
2023-05-12T19:07:52.738Z,18.90
2023-05-12T19:10:21.029Z,18.80
2023-05-12T19:12:50.831Z,18.80
2023-05-12T19:15:19.244Z,18.80
2023-05-12T19:17:49.511Z,18.80
2023-05-12T19:20:17.858Z,18.80
2023-05-12T19:22:46.466Z,18.70
2023-05-12T19:25:17.649Z,18.80
2023-05-12T19:27:46.503Z,18.70
2023-05-12T19:30:15.896Z,18.70
2023-05-12T19:32:45.826Z,18.70
2023-05-12T19:35:16.609Z,18.70
2023-05-12T19:37:44.962Z,18.60
2023-05-12T19:40:13.457Z,18.60
2023-05-12T19:42:42.411Z,18.60
2023-05-12T19:45:11.410Z,18.60
2023-05-12T19:47:39.778Z,18.50
2023-05-12T19:50:09.315Z,18.40
2023-05-12T19:52:39.139Z,18.30
2023-05-12T19:55:08.642Z,18.20
2023-05-12T19:57:37.446Z,18.10
2023-05-12T20:00:06.787Z,18.00
2023-05-12T20:02:35.096Z,17.90
2023-05-12T20:05:04.064Z,17.90
2023-05-12T20:07:32.245Z,17.80
2023-05-12T20:10:01.883Z,17.70
2023-05-12T20:12:30.485Z,17.60
2023-05-12T20:14:58.602Z,17.50
2023-05-12T20:17:26.776Z,17.50
2023-05-12T20:19:55.216Z,17.40
2023-05-12T20:22:23.412Z,17.40
2023-05-12T20:24:51.604Z,17.30
2023-05-12T20:27:21.245Z,17.30
2023-05-12T20:29:52.533Z,17.30
2023-05-12T20:32:20.661Z,17.20
2023-05-12T20:34:48.818Z,17.20
2023-05-12T20:37:17.310Z,17.10
2023-05-12T20:39:45.517Z,17.10
2023-05-12T20:42:13.934Z,17.00
2023-05-12T20:44:43.482Z,16.90
2023-05-12T20:47:12.932Z,16.90
2023-05-12T20:49:41.211Z,16.90
2023-05-12T20:52:09.543Z,16.90
2023-05-12T20:54:38.467Z,16.80
2023-05-12T20:57:07.087Z,16.80
2023-05-12T20:59:35.227Z,16.70
2023-05-12T21:02:04.798Z,16.70
2023-05-12T21:04:33.502Z,16.70
2023-05-12T21:07:01.810Z,16.70
2023-05-12T21:09:29.953Z,16.70
2023-05-12T21:11:58.545Z,16.70
2023-05-12T21:14:26.704Z,16.70
2023-05-12T21:16:54.978Z,16.70
2023-05-12T21:19:24.621Z,16.70
2023-05-12T21:21:52.824Z,16.70
2023-05-12T21:24:20.953Z,16.70
2023-05-12T21:26:49.065Z,16.70
2023-05-12T21:29:17.642Z,16.70
2023-05-12T21:31:47.354Z,16.70
2023-05-12T21:34:15.690Z,16.70
2023-05-12T21:36:45.296Z,16.60
2023-05-12T21:39:13.487Z,16.60
2023-05-12T21:41:41.735Z,16.70
2023-05-12T21:44:11.373Z,16.60
2023-05-12T21:46:40.305Z,16.60
2023-05-12T21:49:08.563Z,16.50
2023-05-12T21:51:36.732Z,16.60
2023-05-12T21:54:06.435Z,16.50
2023-05-12T21:56:34.915Z,16.50
2023-05-12T21:59:02.997Z,16.50
2023-05-12T22:01:31.432Z,16.50
2023-05-12T22:03:59.916Z,16.40
2023-05-12T22:06:28.121Z,16.40
2023-05-12T22:08:56.513Z,16.30
2023-05-12T22:11:26.189Z,16.30
2023-05-12T22:13:54.473Z,16.30
2023-05-12T22:16:31.163Z,16.40
2023-05-12T22:19:06.654Z,16.30
2023-05-12T22:21:35.065Z,16.30
2023-05-12T22:24:03.195Z,16.30
2023-05-12T22:26:32.800Z,16.30
2023-05-12T22:29:01.191Z,16.30
2023-05-12T22:31:29.386Z,16.30
2023-05-12T22:33:57.563Z,16.20
2023-05-12T22:36:25.873Z,16.20
2023-05-12T22:38:54.024Z,16.10
2023-05-12T22:41:22.188Z,16.10
2023-05-12T22:43:51.720Z,16.10
2023-05-12T22:46:19.901Z,16.10
2023-05-12T22:48:48.122Z,16.10
2023-05-12T22:51:16.287Z,16.10
2023-05-12T22:53:44.466Z,16.10
2023-05-12T22:56:12.589Z,16.10
2023-05-12T22:58:40.849Z,16.10
2023-05-12T23:01:10.372Z,16.10
2023-05-12T23:03:38.635Z,16.10
2023-05-12T23:06:07.164Z,16.00
2023-05-12T23:08:35.679Z,16.00
2023-05-12T23:11:03.759Z,16.00
2023-05-12T23:13:31.899Z,16.00
2023-05-12T23:16:00.005Z,16.00
2023-05-12T23:18:29.507Z,15.90
2023-05-12T23:20:57.608Z,15.90
2023-05-12T23:23:25.725Z,15.90
2023-05-12T23:25:53.831Z,15.80
2023-05-12T23:28:21.995Z,15.80
2023-05-12T23:30:50.128Z,15.70
2023-05-12T23:33:18.422Z,15.70
2023-05-12T23:35:47.951Z,15.70
2023-05-12T23:38:16.230Z,15.70
2023-05-12T23:40:44.367Z,15.70
2023-05-12T23:43:12.513Z,15.70
2023-05-12T23:45:40.701Z,15.70
2023-05-12T23:48:08.908Z,15.70
2023-05-12T23:50:37.029Z,15.70
2023-05-12T23:53:06.515Z,15.60
2023-05-12T23:55:34.637Z,15.70
2023-05-12T23:58:02.757Z,15.60
